Aviation Digital Data Service (ADDS)

Output produced by METARs form (0955 UTC 21 November 2017)
found at http://aviationweather.gov/adds/metars/
 
KFNT 210520Z 2106/2206 21014KT P6SM BKN250 WS012/22045KT 
     FM211400 24015G25KT P6SM BKN150 
     FM211600 26012G22KT P6SM BKN028 OVC050 
     FM211900 29014G22KT P6SM BKN024 OVC040 
     PROB30 2119/2122 5SM -SHRASN BR OVC024 
     FM220000 30011G19KT P6SM BKN035 OVC045